aviador You're here:

LPBJ Decoded Metar

BEJA in PORTUGAL
Report Time2018-01-16 21:00:00
UTC Time2018-01-16 21:10:28
Flight Rules mvfr MVFR
Wind340° at 11 kt
W.Decomp.*RWY 01: 9.8 kt HW 5 kt LCW
W.Rank340° ranks 8
Current wind is above 340° avg. (8.6)
Visibility9999 m
Phenomena:N/A
Clouds:Few 010 Hf
Overcast 014 Hf
Ceiling1,400 ft
Temp12°C (ISA -1)
Dew Point12°C (100% RH)
AAT8.7°C
QNH1029 hPa
Density Alt295 ft
Elevation810 ft
Report Wrong Elevation
Raw Report
METAR LPBJ 162100Z 34011KT 9999 FEW010 OVC014 12/12 Q1029=

Extra information for LPBJ:More info

Metar Taf Metar & Taf Last 4 Metars F.Rules Stats Wind Profile Meteogram Temp Stats Airport Information Weather charts Add Link Nearby VenuesMetar ALERT Operation Metar Decoded Social comments